createdAt,value
2022-10-23T00:01:48.333Z,13.05
2022-10-23T00:04:22.545Z,13.75
2022-10-23T00:06:50.998Z,16.30
2022-10-23T00:09:22.042Z,24.42
2022-10-23T00:11:51.350Z,15.57
2022-10-23T00:14:23.314Z,11.25
2022-10-23T00:16:51.494Z,11.55
2022-10-23T00:19:19.678Z,11.43
2022-10-23T00:21:47.915Z,11.75
2022-10-23T00:24:16.081Z,8.43
2022-10-23T00:26:44.578Z,11.02
2022-10-23T00:29:12.777Z,12.88
2022-10-23T00:31:40.913Z,9.45
2022-10-23T00:34:09.604Z,6.40
2022-10-23T00:36:38.244Z,14.80
2022-10-23T00:39:07.280Z,6.50
2022-10-23T00:41:35.667Z,13.15
2022-10-23T00:44:18.971Z,8.45
2022-10-23T00:46:47.272Z,14.57
2022-10-23T00:49:16.563Z,17.02
2022-10-23T00:51:57.850Z,12.60
2022-10-23T00:54:30.225Z,13.32
2022-10-23T00:59:28.652Z,17.00
2022-10-23T01:01:57.310Z,9.25
2022-10-23T01:04:28.416Z,7.43
2022-10-23T01:07:13.096Z,13.82
2022-10-23T01:09:59.988Z,7.93
2022-10-23T01:12:56.239Z,9.88
2022-10-23T01:15:54.234Z,8.73
2022-10-23T01:18:29.871Z,12.55
2022-10-23T01:21:27.255Z,11.65
2022-10-23T01:24:05.286Z,10.43
2022-10-23T01:26:53.536Z,10.43
2022-10-23T01:29:35.121Z,13.38
2022-10-23T01:32:31.036Z,16.17
2022-10-23T01:35:17.496Z,13.85
2022-10-23T01:38:21.731Z,9.80
2022-10-23T01:40:58.593Z,13.05
2022-10-23T01:43:32.639Z,12.23
2022-10-23T01:46:04.866Z,16.00
2022-10-23T01:48:38.273Z,11.45
2022-10-23T01:51:10.449Z,25.42
2022-10-23T01:53:42.376Z,21.00
2022-10-23T01:56:18.533Z,18.42
2022-10-23T01:58:49.945Z,15.25
2022-10-23T02:01:22.605Z,17.87
2022-10-23T02:03:54.322Z,13.45
2022-10-23T02:06:22.762Z,12.93
2022-10-23T02:08:51.295Z,17.77
2022-10-23T02:11:22.113Z,11.55
2022-10-23T02:14:04.442Z,15.02
2022-10-23T02:16:40.188Z,12.18
2022-10-23T02:19:20.264Z,9.35
2022-10-23T02:22:24.432Z,10.38
2022-10-23T02:25:20.451Z,9.80
2022-10-23T02:27:55.374Z,10.75
2022-10-23T02:30:28.685Z,12.40
2022-10-23T02:33:09.864Z,8.95
2022-10-23T02:35:38.240Z,12.25
2022-10-23T02:38:41.404Z,14.93
2022-10-23T02:41:16.671Z,18.00
2022-10-23T02:44:13.324Z,8.63
2022-10-23T02:47:09.705Z,13.93
2022-10-23T02:49:40.978Z,12.93
2022-10-23T02:52:21.143Z,11.60
2022-10-23T02:55:41.947Z,13.23
2022-10-23T02:58:16.905Z,12.65
2022-10-23T03:00:51.586Z,16.98
2022-10-23T03:03:33.162Z,11.60
2022-10-23T03:06:01.464Z,15.10
2022-10-23T03:08:29.503Z,10.68
2022-10-23T03:10:57.850Z,11.40
2022-10-23T03:13:29.185Z,13.20
2022-10-23T03:15:57.411Z,13.82
2022-10-23T03:18:27.760Z,11.88
2022-10-23T03:23:28.139Z,17.90
2022-10-23T03:25:56.522Z,13.48
2022-10-23T03:28:41.488Z,16.70
2022-10-23T03:31:09.903Z,20.13
2022-10-23T03:33:40.136Z,12.20
2022-10-23T03:36:11.569Z,13.68
2022-10-23T03:38:41.241Z,17.23
2022-10-23T03:41:11.682Z,13.18
2022-10-23T03:43:39.824Z,13.15
2022-10-23T03:46:07.971Z,20.08
2022-10-23T03:48:36.725Z,13.18
2022-10-23T03:51:06.627Z,9.52
2022-10-23T03:53:35.434Z,27.83
2022-10-23T03:56:05.342Z,16.52
2022-10-23T03:58:35.122Z,26.20
2022-10-23T04:01:03.441Z,15.38
2022-10-23T04:03:31.683Z,15.38
2022-10-23T04:05:59.739Z,14.80
2022-10-23T04:08:28.148Z,16.92
2022-10-23T04:10:56.804Z,21.30
2022-10-23T04:13:33.741Z,12.77
2022-10-23T04:16:02.125Z,14.05
2022-10-23T04:18:30.185Z,8.48
2022-10-23T04:20:58.464Z,14.90
2022-10-23T04:23:26.633Z,27.38
2022-10-23T04:25:58.968Z,16.23
2022-10-23T04:28:28.377Z,13.32
2022-10-23T04:30:56.794Z,16.75
2022-10-23T04:33:25.504Z,12.63
2022-10-23T04:35:53.692Z,14.60
2022-10-23T04:38:21.926Z,15.85
2022-10-23T04:40:51.173Z,15.65
2022-10-23T04:43:23.452Z,10.90
2022-10-23T04:45:51.724Z,17.38
2022-10-23T04:48:23.371Z,16.65
2022-10-23T04:51:26.228Z,17.42
2022-10-23T04:53:59.349Z,23.80
2022-10-23T04:56:47.744Z,21.15
2022-10-23T04:59:19.360Z,18.08
2022-10-23T05:01:48.344Z,17.33
2022-10-23T05:04:17.171Z,18.02
2022-10-23T05:07:03.519Z,18.42
2022-10-23T05:09:42.718Z,17.30
2022-10-23T05:12:36.711Z,11.05
2022-10-23T05:15:05.563Z,18.35
2022-10-23T05:17:38.927Z,14.88
2022-10-23T05:20:12.592Z,14.73
2022-10-23T05:22:43.199Z,12.43
2022-10-23T05:25:13.942Z,15.13
2022-10-23T05:27:49.283Z,12.52
2022-10-23T05:30:18.100Z,14.23
2022-10-23T05:32:46.594Z,12.73
2022-10-23T05:35:22.637Z,19.27
2022-10-23T05:37:54.253Z,23.60
2022-10-23T05:40:25.677Z,13.75
2022-10-23T05:43:02.075Z,16.27
2022-10-23T05:45:46.191Z,12.30
2022-10-23T05:48:35.023Z,12.68
2022-10-23T05:51:11.675Z,20.08
2022-10-23T05:53:51.153Z,23.55
2022-10-23T05:56:33.356Z,17.33
2022-10-23T05:59:11.144Z,14.20
2022-10-23T06:02:05.193Z,17.85
2022-10-23T06:04:48.004Z,18.27
2022-10-23T06:07:35.744Z,15.68
2022-10-23T06:10:07.460Z,15.30
2022-10-23T06:12:40.577Z,16.45
2022-10-23T06:15:13.074Z,16.60
2022-10-23T06:18:03.120Z,20.52
2022-10-23T06:20:39.182Z,22.85
2022-10-23T06:23:12.911Z,14.25
2022-10-23T06:26:01.428Z,18.48
2022-10-23T06:28:40.273Z,23.48
2022-10-23T06:31:15.771Z,15.38
2022-10-23T06:33:44.021Z,14.60
2022-10-23T06:36:13.466Z,11.75
2022-10-23T06:38:43.315Z,13.20
2022-10-23T06:41:20.404Z,15.98
2022-10-23T06:43:54.339Z,21.02
2022-10-23T06:46:28.910Z,17.35
2022-10-23T06:49:28.753Z,15.55
2022-10-23T06:51:59.532Z,17.70
2022-10-23T06:54:27.882Z,15.98
2022-10-23T06:57:21.255Z,12.90
2022-10-23T06:59:50.645Z,17.23
2022-10-23T07:02:19.467Z,13.23
2022-10-23T07:04:47.770Z,12.40
2022-10-23T07:07:20.314Z,10.98
2022-10-23T07:09:50.333Z,19.40
2022-10-23T07:12:24.267Z,15.57
2022-10-23T07:15:06.197Z,13.63
2022-10-23T07:17:34.633Z,18.25
2022-10-23T07:20:04.202Z,13.60
2022-10-23T07:22:32.482Z,13.80
2022-10-23T07:25:10.716Z,15.48
2022-10-23T07:27:40.110Z,13.30
2022-10-23T07:30:11.121Z,12.93
2022-10-23T07:32:48.130Z,11.88
2022-10-23T07:35:37.183Z,12.50
2022-10-23T07:38:11.567Z,10.32
2022-10-23T07:40:42.846Z,15.63
2022-10-23T07:43:12.359Z,16.35
2022-10-23T07:45:40.491Z,12.15
2022-10-23T07:48:17.522Z,18.75
2022-10-23T07:51:11.564Z,13.10
2022-10-23T07:53:46.105Z,14.53
2022-10-23T07:56:43.526Z,13.07
2022-10-23T07:59:38.138Z,17.88
2022-10-23T08:02:15.064Z,13.45
2022-10-23T08:04:44.451Z,16.55
2022-10-23T08:07:25.106Z,15.77
2022-10-23T08:09:56.644Z,12.13
2022-10-23T08:12:26.213Z,14.35
2022-10-23T08:14:55.743Z,14.90
2022-10-23T08:17:28.208Z,16.02
2022-10-23T08:20:06.846Z,15.38
2022-10-23T08:22:40.971Z,14.52
2022-10-23T08:25:10.339Z,21.70
2022-10-23T08:27:39.646Z,17.92
2022-10-23T08:30:08.167Z,24.40
2022-10-23T08:32:36.770Z,14.32
2022-10-23T08:35:05.145Z,20.23
2022-10-23T08:37:34.504Z,19.60
2022-10-23T08:40:02.972Z,14.02
2022-10-23T08:43:06.270Z,14.82
2022-10-23T08:45:49.253Z,21.50
2022-10-23T08:48:44.845Z,14.20
2022-10-23T08:51:38.449Z,17.90
2022-10-23T08:54:17.336Z,12.23
2022-10-23T08:57:10.795Z,14.88
2022-10-23T08:59:49.276Z,11.85
2022-10-23T09:02:28.402Z,21.27
2022-10-23T09:04:59.311Z,14.52
2022-10-23T09:08:01.415Z,14.75
2022-10-23T09:10:51.530Z,9.68
2022-10-23T09:13:44.539Z,17.35
2022-10-23T09:16:53.989Z,10.63
2022-10-23T09:19:25.253Z,11.65
2022-10-23T09:21:55.051Z,14.85
2022-10-23T09:24:25.095Z,13.30
2022-10-23T09:26:55.038Z,10.07
2022-10-23T09:29:30.392Z,13.13
2022-10-23T09:32:00.782Z,13.07
2022-10-23T09:34:31.825Z,14.90
2022-10-23T09:37:03.079Z,9.77
2022-10-23T09:39:34.423Z,10.63
2022-10-23T09:42:25.372Z,11.52
2022-10-23T09:44:55.664Z,9.57
2022-10-23T09:47:26.259Z,10.55
2022-10-23T09:49:56.518Z,11.10
2022-10-23T09:52:26.194Z,12.63
2022-10-23T09:55:15.491Z,11.05
2022-10-23T09:57:45.898Z,10.30
2022-10-23T10:02:55.413Z,10.82
2022-10-23T10:05:38.057Z,10.20
2022-10-23T10:08:25.237Z,9.32
2022-10-23T10:10:53.340Z,13.98
2022-10-23T10:13:36.357Z,8.35
2022-10-23T10:16:14.685Z,13.15
2022-10-23T10:18:57.223Z,5.45
2022-10-23T10:21:28.391Z,5.93
2022-10-23T10:24:08.801Z,7.40
2022-10-23T10:26:58.397Z,10.60
2022-10-23T10:29:44.844Z,9.00
2022-10-23T10:32:31.606Z,10.90
2022-10-23T10:35:17.060Z,7.93
2022-10-23T10:37:58.795Z,11.43
2022-10-23T10:40:37.503Z,10.70
2022-10-23T10:43:42.325Z,11.70
2022-10-23T10:46:24.546Z,8.75
2022-10-23T10:49:00.291Z,6.15
2022-10-23T10:51:35.075Z,5.78
2022-10-23T10:54:26.369Z,10.45
2022-10-23T10:56:54.822Z,4.35
2022-10-23T10:59:28.855Z,8.70
2022-10-23T11:02:24.273Z,10.35
2022-10-23T11:05:19.523Z,8.30
2022-10-23T11:08:15.360Z,5.10
2022-10-23T11:10:47.197Z,11.73
2022-10-23T11:13:35.068Z,10.80
2022-10-23T11:16:10.255Z,12.48
2022-10-23T11:18:41.243Z,17.30
2022-10-23T11:21:34.411Z,11.43
2022-10-23T11:24:11.976Z,8.88
2022-10-23T11:26:58.596Z,17.90
2022-10-23T11:29:29.832Z,12.93
2022-10-23T11:32:03.992Z,7.07
2022-10-23T11:35:25.789Z,10.07
2022-10-23T11:38:27.444Z,13.88
2022-10-23T11:41:05.121Z,9.45
2022-10-23T11:43:48.266Z,20.08
2022-10-23T11:46:37.082Z,13.90
2022-10-23T11:49:19.777Z,11.38
2022-10-23T11:51:48.038Z,9.88
2022-10-23T11:54:16.109Z,10.98
2022-10-23T11:57:10.597Z,9.95
2022-10-23T11:59:50.924Z,9.20
2022-10-23T12:02:42.977Z,11.00
2022-10-23T12:05:37.030Z,9.25
2022-10-23T12:08:28.270Z,9.63
2022-10-23T12:10:56.818Z,13.37
2022-10-23T12:13:46.999Z,11.00
2022-10-23T12:16:15.340Z,8.23
2022-10-23T12:18:52.090Z,9.43
2022-10-23T12:21:26.060Z,12.73
2022-10-23T12:24:25.230Z,13.55
2022-10-23T12:27:05.338Z,18.60
2022-10-23T12:30:04.111Z,13.63
2022-10-23T12:33:00.063Z,12.70
2022-10-23T12:36:07.076Z,7.82
2022-10-23T12:38:44.247Z,12.32
2022-10-23T12:41:17.156Z,10.40
2022-10-23T12:43:55.033Z,9.98
2022-10-23T12:46:41.176Z,12.52
2022-10-23T12:49:18.918Z,10.52
2022-10-23T12:51:55.108Z,12.63
2022-10-23T12:54:23.552Z,13.95
2022-10-23T12:56:51.972Z,20.58
2022-10-23T12:59:32.527Z,11.48
2022-10-23T13:02:00.920Z,15.90
2022-10-23T13:04:35.419Z,14.25
2022-10-23T13:07:04.742Z,13.50
2022-10-23T13:09:41.649Z,14.10
2022-10-23T13:12:31.646Z,13.25
2022-10-23T13:15:14.449Z,9.38
2022-10-23T13:17:48.494Z,11.70
2022-10-23T13:20:24.825Z,14.93
2022-10-23T13:23:16.191Z,19.38
2022-10-23T13:25:53.542Z,13.73
2022-10-23T13:28:29.394Z,8.35
2022-10-23T13:31:23.960Z,13.90
2022-10-23T13:34:06.304Z,7.80
2022-10-23T13:36:38.158Z,19.88
2022-10-23T13:39:14.928Z,12.80
2022-10-23T13:41:47.407Z,7.47
2022-10-23T13:44:20.513Z,16.98
2022-10-23T13:46:48.911Z,10.43
2022-10-23T13:49:17.107Z,17.95
2022-10-23T13:51:52.658Z,10.73
2022-10-23T13:56:59.503Z,10.80
2022-10-23T13:59:27.706Z,13.20
2022-10-23T14:01:56.018Z,11.90
2022-10-23T14:04:24.299Z,20.13
2022-10-23T14:06:52.612Z,13.68
2022-10-23T14:09:20.668Z,10.57
2022-10-23T14:11:48.967Z,18.40
2022-10-23T14:14:17.118Z,21.80
2022-10-23T14:16:45.282Z,11.80
2022-10-23T14:19:13.345Z,17.70
2022-10-23T14:21:41.620Z,12.25
2022-10-23T14:24:09.772Z,12.38
2022-10-23T14:26:37.886Z,7.60
2022-10-23T14:29:09.828Z,14.57
2022-10-23T14:31:42.169Z,14.52
2022-10-23T14:34:10.334Z,12.77
2022-10-23T14:36:49.632Z,12.10
2022-10-23T14:39:24.896Z,13.77
2022-10-23T14:41:53.136Z,15.68
2022-10-23T14:44:21.229Z,16.25
2022-10-23T14:46:49.378Z,13.85
2022-10-23T14:49:17.518Z,13.65
2022-10-23T14:51:45.727Z,11.93
2022-10-23T14:54:13.930Z,11.60
2022-10-23T14:56:42.256Z,14.98
2022-10-23T14:59:10.535Z,13.00
2022-10-23T15:01:45.532Z,16.63
2022-10-23T15:04:16.609Z,21.80
2022-10-23T15:06:45.571Z,15.48
2022-10-23T15:09:14.698Z,14.77
2022-10-23T15:11:42.937Z,11.10
2022-10-23T15:14:11.255Z,12.10
2022-10-23T15:16:40.843Z,13.77
2022-10-23T15:19:17.382Z,13.48
2022-10-23T15:21:48.439Z,13.57
2022-10-23T15:24:18.277Z,10.95
2022-10-23T15:26:46.767Z,14.52
2022-10-23T15:29:16.038Z,9.55
2022-10-23T15:31:54.978Z,11.75
2022-10-23T15:34:26.070Z,12.75
2022-10-23T15:36:56.607Z,13.13
2022-10-23T15:39:28.325Z,9.93
2022-10-23T15:41:57.368Z,11.65
2022-10-23T15:44:28.465Z,10.57
2022-10-23T15:46:57.605Z,13.95
2022-10-23T15:49:28.834Z,13.27
2022-10-23T15:51:57.463Z,10.30
2022-10-23T15:54:28.146Z,21.13
2022-10-23T15:56:58.889Z,14.52
2022-10-23T15:59:27.144Z,17.58
2022-10-23T16:01:55.660Z,12.45
2022-10-23T16:04:25.125Z,10.05
2022-10-23T16:06:53.282Z,12.40
2022-10-23T16:09:21.442Z,12.13
2022-10-23T16:11:49.748Z,18.05
2022-10-23T16:14:18.217Z,11.73
2022-10-23T16:16:46.423Z,15.13
2022-10-23T16:19:14.955Z,9.63
2022-10-23T16:21:43.458Z,21.50
2022-10-23T16:24:11.924Z,13.07
2022-10-23T16:26:40.657Z,8.00
2022-10-23T16:29:09.938Z,11.35
2022-10-23T16:31:38.349Z,23.63
2022-10-23T16:34:07.050Z,12.68
2022-10-23T16:36:35.660Z,14.63
2022-10-23T16:39:26.649Z,9.07
2022-10-23T16:42:13.029Z,17.63
2022-10-23T16:45:05.468Z,50.65
2022-10-23T16:47:34.221Z,89.00
2022-10-23T16:50:02.258Z,40.70
2022-10-23T16:52:30.549Z,25.75
2022-10-23T16:54:58.814Z,110.55
2022-10-23T16:57:27.203Z,64.63
2022-10-23T16:59:56.125Z,16.25
2022-10-23T17:02:24.511Z,28.23
2022-10-23T17:04:52.698Z,54.92
2022-10-23T17:09:54.100Z,11.90
2022-10-23T17:12:22.261Z,23.65
2022-10-23T17:14:50.424Z,23.35
2022-10-23T17:17:18.576Z,6.75
2022-10-23T17:19:47.068Z,13.13
2022-10-23T17:22:15.859Z,9.93
2022-10-23T17:24:48.776Z,9.05
2022-10-23T17:27:20.453Z,15.73
2022-10-23T17:29:50.921Z,18.75
2022-10-23T17:32:19.095Z,14.25
2022-10-23T17:34:47.173Z,12.35
2022-10-23T17:37:15.507Z,11.68
2022-10-23T17:39:44.070Z,11.07
2022-10-23T17:42:12.361Z,10.32
2022-10-23T17:44:40.657Z,10.93
2022-10-23T17:47:08.840Z,11.32
2022-10-23T17:49:36.986Z,11.20
2022-10-23T17:52:05.435Z,13.18
2022-10-23T17:54:33.691Z,16.15
2022-10-23T17:57:01.967Z,11.18
2022-10-23T17:59:30.578Z,17.65
2022-10-23T18:01:59.028Z,24.10
2022-10-23T18:04:27.356Z,11.77
2022-10-23T18:06:55.726Z,11.48
2022-10-23T18:09:24.495Z,11.65
2022-10-23T18:11:52.915Z,13.07
2022-10-23T18:14:27.252Z,17.73
2022-10-23T18:16:57.896Z,11.20
2022-10-23T18:19:26.612Z,19.02
2022-10-23T18:21:54.764Z,49.10
2022-10-23T18:24:23.491Z,67.78
2022-10-23T18:26:51.743Z,29.48
2022-10-23T18:29:20.515Z,56.20
2022-10-23T18:31:48.957Z,44.53
2022-10-23T18:34:23.283Z,22.88
2022-10-23T18:36:53.528Z,58.30
2022-10-23T18:39:24.726Z,52.20
2022-10-23T18:41:55.459Z,48.50
2022-10-23T18:44:24.847Z,39.03
2022-10-23T18:46:53.387Z,30.33
2022-10-23T18:49:21.754Z,19.88
2022-10-23T18:51:51.345Z,28.67
2022-10-23T18:54:21.599Z,32.03
2022-10-23T18:56:50.312Z,17.02
2022-10-23T18:59:20.512Z,51.72
2022-10-23T19:01:50.052Z,66.00
2022-10-23T19:04:18.552Z,52.20
2022-10-23T19:06:49.636Z,79.22
2022-10-23T19:09:18.463Z,40.27
2022-10-23T19:11:46.918Z,23.23
2022-10-23T19:14:15.422Z,35.47
2022-10-23T19:17:02.220Z,45.28
2022-10-23T19:19:38.024Z,47.92
2022-10-23T19:22:06.349Z,43.53
2022-10-23T19:24:58.330Z,43.38
2022-10-23T19:27:27.838Z,56.60
2022-10-23T19:29:57.019Z,50.97
2022-10-23T19:32:25.148Z,50.72
2022-10-23T19:34:53.369Z,60.63
2022-10-23T19:37:21.764Z,39.67
2022-10-23T19:39:49.867Z,54.38
2022-10-23T19:42:18.033Z,69.95
2022-10-23T19:44:46.345Z,63.78
2022-10-23T19:47:14.663Z,31.92
2022-10-23T19:49:42.981Z,40.03
2022-10-23T19:52:11.038Z,60.95
2022-10-23T19:54:39.465Z,52.35
2022-10-23T19:57:07.673Z,46.85
2022-10-23T19:59:35.975Z,26.60
2022-10-23T20:02:04.461Z,27.17
2022-10-23T20:04:33.287Z,23.67
2022-10-23T20:07:01.840Z,30.67
2022-10-23T20:09:31.161Z,14.38
2022-10-23T20:11:59.337Z,15.15
2022-10-23T20:14:28.110Z,15.45
2022-10-23T20:16:56.505Z,26.52
2022-10-23T20:19:24.581Z,9.35
2022-10-23T20:21:52.849Z,15.15
2022-10-23T20:24:22.339Z,13.35
2022-10-23T20:26:53.750Z,10.32
2022-10-23T20:29:23.228Z,19.38
2022-10-23T20:31:52.128Z,16.73
2022-10-23T20:34:20.560Z,23.33
2022-10-23T20:36:50.272Z,15.85
2022-10-23T20:39:22.236Z,11.52
2022-10-23T20:41:50.610Z,13.43
2022-10-23T20:44:19.461Z,26.25
2022-10-23T20:46:48.339Z,14.02
2022-10-23T20:49:17.758Z,12.05
2022-10-23T20:51:46.296Z,24.15
2022-10-23T20:54:14.605Z,8.18
2022-10-23T20:56:43.309Z,22.10
2022-10-23T20:59:14.063Z,12.95
2022-10-23T21:01:45.231Z,17.63
2022-10-23T21:04:14.693Z,14.00
2022-10-23T21:06:57.694Z,13.80
2022-10-23T21:09:31.839Z,18.42
2022-10-23T21:11:59.955Z,15.10
2022-10-23T21:14:28.295Z,16.48
2022-10-23T21:16:56.711Z,13.55
2022-10-23T21:19:27.591Z,24.48
2022-10-23T21:21:56.067Z,36.53
2022-10-23T21:24:24.252Z,25.98
2022-10-23T21:26:52.446Z,18.92
2022-10-23T21:29:20.917Z,27.73
2022-10-23T21:32:07.198Z,16.65
2022-10-23T21:34:35.570Z,23.15
2022-10-23T21:37:19.122Z,19.27
2022-10-23T21:39:47.417Z,23.65
2022-10-23T21:42:15.753Z,12.88
2022-10-23T21:44:44.094Z,15.20
2022-10-23T21:47:12.298Z,16.05
2022-10-23T21:49:40.575Z,14.95
2022-10-23T21:52:08.956Z,14.40
2022-10-23T21:54:37.213Z,13.77
2022-10-23T21:57:05.557Z,12.23
2022-10-23T21:59:35.887Z,21.13
2022-10-23T22:02:05.348Z,11.30
2022-10-23T22:04:35.023Z,11.13
2022-10-23T22:07:03.387Z,18.17
2022-10-23T22:09:33.144Z,19.45
2022-10-23T22:12:02.043Z,23.38
2022-10-23T22:14:30.131Z,16.00
2022-10-23T22:16:59.247Z,24.92
2022-10-23T22:19:27.502Z,26.15
2022-10-23T22:21:55.682Z,18.52
2022-10-23T22:24:24.289Z,19.05
2022-10-23T22:26:55.114Z,22.60
2022-10-23T22:29:27.501Z,17.40
2022-10-23T22:31:56.447Z,14.25
2022-10-23T22:37:18.718Z,18.23
2022-10-23T22:39:46.925Z,26.45
2022-10-23T22:42:15.229Z,18.33
2022-10-23T22:44:43.684Z,15.35
2022-10-23T22:47:12.122Z,15.85
2022-10-23T22:49:40.354Z,14.20
2022-10-23T22:52:08.487Z,9.90
2022-10-23T22:54:36.835Z,18.63
2022-10-23T22:57:05.192Z,16.67
2022-10-23T22:59:33.684Z,22.73
2022-10-23T23:02:02.026Z,20.42
2022-10-23T23:04:37.713Z,16.90
2022-10-23T23:07:11.446Z,20.70
2022-10-23T23:09:44.159Z,32.47
2022-10-23T23:12:14.333Z,31.13
2022-10-23T23:14:43.756Z,27.40
2022-10-23T23:17:12.832Z,25.48
2022-10-23T23:19:41.015Z,30.45
2022-10-23T23:22:09.402Z,16.70
2022-10-23T23:24:37.618Z,27.35
2022-10-23T23:27:05.983Z,21.38
2022-10-23T23:29:34.287Z,13.82
2022-10-23T23:32:02.385Z,21.27
2022-10-23T23:34:30.734Z,12.63
2022-10-23T23:36:59.279Z,20.45
2022-10-23T23:39:27.416Z,25.42
2022-10-23T23:41:55.687Z,24.73
2022-10-23T23:44:23.984Z,31.23
2022-10-23T23:46:52.050Z,11.98
2022-10-23T23:49:20.459Z,15.30
2022-10-23T23:51:48.730Z,13.15
2022-10-23T23:54:17.192Z,16.55
2022-10-23T23:56:45.663Z,15.40
2022-10-23T23:59:13.979Z,26.83
